sensor_id;sensor_type;location;lat;lon;timestamp;P1;durP1;ratioP1;P2;durP2;ratioP2
51560;SDS011;37654;51.262;17.058;2023-12-07T00:00:59;122.22;;;53.88;;
51560;SDS011;37654;51.262;17.058;2023-12-07T00:03:24;112.47;;;49.63;;
51560;SDS011;37654;51.262;17.058;2023-12-07T00:05:49;115.47;;;53.65;;
51560;SDS011;37654;51.262;17.058;2023-12-07T00:08:15;113.07;;;53.50;;
51560;SDS011;37654;51.262;17.058;2023-12-07T00:10:40;117.50;;;52.03;;
51560;SDS011;37654;51.262;17.058;2023-12-07T00:13:05;129.55;;;53.38;;
51560;SDS011;37654;51.262;17.058;2023-12-07T00:15:31;122.53;;;58.97;;
51560;SDS011;37654;51.262;17.058;2023-12-07T00:17:56;116.07;;;49.72;;
51560;SDS011;37654;51.262;17.058;2023-12-07T00:20:21;121.25;;;53.25;;
51560;SDS011;37654;51.262;17.058;2023-12-07T00:22:47;123.90;;;59.92;;
51560;SDS011;37654;51.262;17.058;2023-12-07T00:25:12;129.13;;;50.65;;
51560;SDS011;37654;51.262;17.058;2023-12-07T00:27:37;121.75;;;51.47;;
51560;SDS011;37654;51.262;17.058;2023-12-07T00:30:03;119.90;;;58.80;;
51560;SDS011;37654;51.262;17.058;2023-12-07T00:32:28;112.15;;;49.13;;
51560;SDS011;37654;51.262;17.058;2023-12-07T00:34:54;117.15;;;49.58;;
51560;SDS011;37654;51.262;17.058;2023-12-07T00:37:19;118.07;;;47.25;;
51560;SDS011;37654;51.262;17.058;2023-12-07T00:39:44;118.32;;;50.58;;
51560;SDS011;37654;51.262;17.058;2023-12-07T00:42:10;121.05;;;50.35;;
51560;SDS011;37654;51.262;17.058;2023-12-07T00:44:39;125.93;;;51.83;;
51560;SDS011;37654;51.262;17.058;2023-12-07T00:47:05;117.15;;;50.95;;
51560;SDS011;37654;51.262;17.058;2023-12-07T00:49:30;110.20;;;44.33;;
51560;SDS011;37654;51.262;17.058;2023-12-07T00:51:56;112.32;;;50.72;;
51560;SDS011;37654;51.262;17.058;2023-12-07T00:54:21;118.30;;;54.38;;
51560;SDS011;37654;51.262;17.058;2023-12-07T00:56:46;119.05;;;50.03;;
51560;SDS011;37654;51.262;17.058;2023-12-07T00:59:12;101.63;;;43.33;;
51560;SDS011;37654;51.262;17.058;2023-12-07T01:01:37;119.05;;;45.80;;
51560;SDS011;37654;51.262;17.058;2023-12-07T01:04:04;111.88;;;48.67;;
51560;SDS011;37654;51.262;17.058;2023-12-07T01:06:29;112.47;;;45.58;;
51560;SDS011;37654;51.262;17.058;2023-12-07T01:08:54;115.18;;;49.70;;
51560;SDS011;37654;51.262;17.058;2023-12-07T01:11:20;116.13;;;48.33;;
51560;SDS011;37654;51.262;17.058;2023-12-07T01:13:45;115.30;;;48.35;;
51560;SDS011;37654;51.262;17.058;2023-12-07T01:16:10;111.75;;;49.28;;
51560;SDS011;37654;51.262;17.058;2023-12-07T01:18:36;114.30;;;50.33;;
51560;SDS011;37654;51.262;17.058;2023-12-07T01:21:02;111.82;;;46.30;;
51560;SDS011;37654;51.262;17.058;2023-12-07T01:23:27;106.90;;;47.80;;
51560;SDS011;37654;51.262;17.058;2023-12-07T01:25:53;103.93;;;44.97;;
51560;SDS011;37654;51.262;17.058;2023-12-07T01:28:18;116.40;;;49.47;;
51560;SDS011;37654;51.262;17.058;2023-12-07T01:30:43;114.78;;;49.22;;
51560;SDS011;37654;51.262;17.058;2023-12-07T01:33:08;128.82;;;47.35;;
51560;SDS011;37654;51.262;17.058;2023-12-07T01:35:34;115.30;;;52.03;;
51560;SDS011;37654;51.262;17.058;2023-12-07T01:37:59;115.03;;;48.00;;
51560;SDS011;37654;51.262;17.058;2023-12-07T01:40:24;117.28;;;49.42;;
51560;SDS011;37654;51.262;17.058;2023-12-07T01:42:50;105.28;;;46.65;;
51560;SDS011;37654;51.262;17.058;2023-12-07T01:45:16;118.50;;;46.83;;
51560;SDS011;37654;51.262;17.058;2023-12-07T01:47:41;99.28;;;44.55;;
51560;SDS011;37654;51.262;17.058;2023-12-07T01:50:07;111.38;;;49.05;;
51560;SDS011;37654;51.262;17.058;2023-12-07T01:52:33;112.93;;;48.15;;
51560;SDS011;37654;51.262;17.058;2023-12-07T01:54:59;96.63;;;45.03;;
51560;SDS011;37654;51.262;17.058;2023-12-07T01:57:25;114.93;;;49.05;;
51560;SDS011;37654;51.262;17.058;2023-12-07T01:59:50;116.88;;;47.92;;
51560;SDS011;37654;51.262;17.058;2023-12-07T02:02:16;113.93;;;50.13;;
51560;SDS011;37654;51.262;17.058;2023-12-07T02:04:41;121.32;;;48.45;;
51560;SDS011;37654;51.262;17.058;2023-12-07T02:07:06;127.13;;;49.13;;
51560;SDS011;37654;51.262;17.058;2023-12-07T02:09:32;120.40;;;51.38;;
51560;SDS011;37654;51.262;17.058;2023-12-07T02:11:57;128.05;;;51.53;;
51560;SDS011;37654;51.262;17.058;2023-12-07T02:14:23;109.15;;;48.45;;
51560;SDS011;37654;51.262;17.058;2023-12-07T02:16:48;130.10;;;52.92;;
51560;SDS011;37654;51.262;17.058;2023-12-07T02:21:40;113.30;;;48.08;;
51560;SDS011;37654;51.262;17.058;2023-12-07T02:24:08;126.55;;;53.30;;
51560;SDS011;37654;51.262;17.058;2023-12-07T02:26:34;111.57;;;48.80;;
51560;SDS011;37654;51.262;17.058;2023-12-07T02:29:02;116.30;;;50.28;;
51560;SDS011;37654;51.262;17.058;2023-12-07T02:31:28;117.00;;;51.75;;
51560;SDS011;37654;51.262;17.058;2023-12-07T02:33:54;114.53;;;46.38;;
51560;SDS011;37654;51.262;17.058;2023-12-07T02:36:19;118.93;;;49.80;;
51560;SDS011;37654;51.262;17.058;2023-12-07T02:38:45;114.60;;;48.05;;
51560;SDS011;37654;51.262;17.058;2023-12-07T02:41:12;110.82;;;47.50;;
51560;SDS011;37654;51.262;17.058;2023-12-07T02:43:37;119.75;;;48.80;;
51560;SDS011;37654;51.262;17.058;2023-12-07T02:46:03;129.93;;;50.80;;
51560;SDS011;37654;51.262;17.058;2023-12-07T02:48:28;121.70;;;50.28;;
51560;SDS011;37654;51.262;17.058;2023-12-07T02:50:54;121.13;;;50.75;;
51560;SDS011;37654;51.262;17.058;2023-12-07T02:53:20;115.75;;;48.97;;
51560;SDS011;37654;51.262;17.058;2023-12-07T02:55:45;121.18;;;47.63;;
51560;SDS011;37654;51.262;17.058;2023-12-07T02:58:10;118.18;;;48.92;;
51560;SDS011;37654;51.262;17.058;2023-12-07T03:00:36;132.85;;;53.63;;
51560;SDS011;37654;51.262;17.058;2023-12-07T03:03:01;129.20;;;49.83;;
51560;SDS011;37654;51.262;17.058;2023-12-07T03:05:26;119.75;;;48.95;;
51560;SDS011;37654;51.262;17.058;2023-12-07T03:07:52;120.22;;;49.60;;
51560;SDS011;37654;51.262;17.058;2023-12-07T03:10:17;122.55;;;51.17;;
51560;SDS011;37654;51.262;17.058;2023-12-07T03:12:42;116.35;;;48.38;;
51560;SDS011;37654;51.262;17.058;2023-12-07T03:15:08;111.63;;;48.08;;
51560;SDS011;37654;51.262;17.058;2023-12-07T03:17:35;119.50;;;49.75;;
51560;SDS011;37654;51.262;17.058;2023-12-07T03:20:00;116.78;;;47.70;;
51560;SDS011;37654;51.262;17.058;2023-12-07T03:22:25;114.35;;;47.83;;
51560;SDS011;37654;51.262;17.058;2023-12-07T03:24:51;114.80;;;48.78;;
51560;SDS011;37654;51.262;17.058;2023-12-07T03:27:17;129.27;;;52.83;;
51560;SDS011;37654;51.262;17.058;2023-12-07T03:29:42;108.63;;;46.25;;
51560;SDS011;37654;51.262;17.058;2023-12-07T03:32:07;121.20;;;50.10;;
51560;SDS011;37654;51.262;17.058;2023-12-07T03:34:33;119.47;;;50.40;;
51560;SDS011;37654;51.262;17.058;2023-12-07T03:36:58;118.72;;;49.03;;
51560;SDS011;37654;51.262;17.058;2023-12-07T03:39:23;121.47;;;48.90;;
51560;SDS011;37654;51.262;17.058;2023-12-07T03:41:50;116.38;;;47.72;;
51560;SDS011;37654;51.262;17.058;2023-12-07T03:44:15;115.63;;;49.42;;
51560;SDS011;37654;51.262;17.058;2023-12-07T03:46:41;115.55;;;50.40;;
51560;SDS011;37654;51.262;17.058;2023-12-07T03:49:06;111.00;;;46.03;;
51560;SDS011;37654;51.262;17.058;2023-12-07T03:51:31;124.30;;;51.28;;
51560;SDS011;37654;51.262;17.058;2023-12-07T03:53:57;105.72;;;47.88;;
51560;SDS011;37654;51.262;17.058;2023-12-07T03:56:25;128.85;;;53.80;;
51560;SDS011;37654;51.262;17.058;2023-12-07T03:58:51;126.03;;;50.38;;
51560;SDS011;37654;51.262;17.058;2023-12-07T04:01:16;112.35;;;47.70;;
51560;SDS011;37654;51.262;17.058;2023-12-07T04:03:42;116.32;;;49.92;;
51560;SDS011;37654;51.262;17.058;2023-12-07T04:06:07;132.27;;;53.70;;
51560;SDS011;37654;51.262;17.058;2023-12-07T04:08:33;129.18;;;52.28;;
51560;SDS011;37654;51.262;17.058;2023-12-07T04:10:58;127.20;;;53.45;;
51560;SDS011;37654;51.262;17.058;2023-12-07T04:13:23;123.82;;;51.95;;
51560;SDS011;37654;51.262;17.058;2023-12-07T04:15:48;124.10;;;53.97;;
51560;SDS011;37654;51.262;17.058;2023-12-07T04:18:14;124.72;;;51.58;;
51560;SDS011;37654;51.262;17.058;2023-12-07T04:20:39;125.20;;;51.42;;
51560;SDS011;37654;51.262;17.058;2023-12-07T04:23:04;112.47;;;50.55;;
51560;SDS011;37654;51.262;17.058;2023-12-07T04:25:30;113.85;;;47.90;;
51560;SDS011;37654;51.262;17.058;2023-12-07T04:27:55;121.50;;;50.03;;
51560;SDS011;37654;51.262;17.058;2023-12-07T04:30:20;125.30;;;49.25;;
51560;SDS011;37654;51.262;17.058;2023-12-07T04:32:46;118.25;;;47.47;;
51560;SDS011;37654;51.262;17.058;2023-12-07T04:35:11;113.38;;;48.33;;
51560;SDS011;37654;51.262;17.058;2023-12-07T04:37:36;111.78;;;49.55;;
51560;SDS011;37654;51.262;17.058;2023-12-07T04:40:02;123.60;;;51.45;;
51560;SDS011;37654;51.262;17.058;2023-12-07T04:42:30;131.20;;;50.40;;
51560;SDS011;37654;51.262;17.058;2023-12-07T04:44:55;118.32;;;52.03;;
51560;SDS011;37654;51.262;17.058;2023-12-07T04:47:20;127.80;;;49.60;;
51560;SDS011;37654;51.262;17.058;2023-12-07T04:49:46;133.23;;;53.50;;
51560;SDS011;37654;51.262;17.058;2023-12-07T04:52:11;123.22;;;49.75;;
51560;SDS011;37654;51.262;17.058;2023-12-07T04:54:37;119.45;;;51.42;;
51560;SDS011;37654;51.262;17.058;2023-12-07T04:57:02;124.53;;;49.08;;
51560;SDS011;37654;51.262;17.058;2023-12-07T04:59:27;121.45;;;49.33;;
51560;SDS011;37654;51.262;17.058;2023-12-07T05:01:53;115.22;;;51.13;;
51560;SDS011;37654;51.262;17.058;2023-12-07T05:04:18;120.35;;;48.80;;
51560;SDS011;37654;51.262;17.058;2023-12-07T05:06:43;124.95;;;50.17;;
51560;SDS011;37654;51.262;17.058;2023-12-07T05:09:09;121.00;;;49.85;;
51560;SDS011;37654;51.262;17.058;2023-12-07T05:11:34;114.05;;;49.67;;
51560;SDS011;37654;51.262;17.058;2023-12-07T05:13:59;112.97;;;50.05;;
51560;SDS011;37654;51.262;17.058;2023-12-07T05:16:25;120.20;;;48.78;;
51560;SDS011;37654;51.262;17.058;2023-12-07T05:18:50;126.10;;;51.00;;
51560;SDS011;37654;51.262;17.058;2023-12-07T05:21:15;128.77;;;53.35;;
51560;SDS011;37654;51.262;17.058;2023-12-07T05:23:41;124.93;;;50.55;;
51560;SDS011;37654;51.262;17.058;2023-12-07T05:26:06;125.93;;;50.83;;
51560;SDS011;37654;51.262;17.058;2023-12-07T05:28:33;132.77;;;54.10;;
51560;SDS011;37654;51.262;17.058;2023-12-07T05:30:58;109.45;;;48.67;;
51560;SDS011;37654;51.262;17.058;2023-12-07T05:33:23;129.88;;;51.75;;
51560;SDS011;37654;51.262;17.058;2023-12-07T05:35:50;123.72;;;49.50;;
51560;SDS011;37654;51.262;17.058;2023-12-07T05:38:15;121.22;;;50.95;;
51560;SDS011;37654;51.262;17.058;2023-12-07T05:40:40;131.02;;;55.10;;
51560;SDS011;37654;51.262;17.058;2023-12-07T05:43:06;126.43;;;55.72;;
51560;SDS011;37654;51.262;17.058;2023-12-07T05:45:33;127.07;;;54.30;;
51560;SDS011;37654;51.262;17.058;2023-12-07T05:47:58;131.70;;;52.47;;
51560;SDS011;37654;51.262;17.058;2023-12-07T05:50:23;123.13;;;51.38;;
51560;SDS011;37654;51.262;17.058;2023-12-07T05:52:48;130.35;;;52.25;;
51560;SDS011;37654;51.262;17.058;2023-12-07T05:55:14;132.18;;;56.95;;
51560;SDS011;37654;51.262;17.058;2023-12-07T05:57:39;135.63;;;56.17;;
51560;SDS011;37654;51.262;17.058;2023-12-07T06:00:05;138.88;;;55.85;;
51560;SDS011;37654;51.262;17.058;2023-12-07T06:02:34;134.90;;;54.17;;
51560;SDS011;37654;51.262;17.058;2023-12-07T06:04:59;145.52;;;55.50;;
51560;SDS011;37654;51.262;17.058;2023-12-07T06:07:25;137.65;;;55.63;;
51560;SDS011;37654;51.262;17.058;2023-12-07T06:09:50;144.13;;;57.13;;
51560;SDS011;37654;51.262;17.058;2023-12-07T06:12:15;132.80;;;55.75;;
51560;SDS011;37654;51.262;17.058;2023-12-07T06:14:41;139.27;;;55.60;;
51560;SDS011;37654;51.262;17.058;2023-12-07T06:17:06;138.60;;;55.50;;
51560;SDS011;37654;51.262;17.058;2023-12-07T06:19:33;138.82;;;57.13;;
51560;SDS011;37654;51.262;17.058;2023-12-07T06:21:58;135.68;;;57.80;;
51560;SDS011;37654;51.262;17.058;2023-12-07T06:24:23;133.45;;;56.65;;
51560;SDS011;37654;51.262;17.058;2023-12-07T06:26:50;128.25;;;54.30;;
51560;SDS011;37654;51.262;17.058;2023-12-07T06:29:17;134.85;;;54.15;;
51560;SDS011;37654;51.262;17.058;2023-12-07T06:31:43;126.95;;;56.08;;
51560;SDS011;37654;51.262;17.058;2023-12-07T06:34:09;142.38;;;57.47;;
51560;SDS011;37654;51.262;17.058;2023-12-07T06:36:34;131.80;;;56.75;;
51560;SDS011;37654;51.262;17.058;2023-12-07T06:39:01;143.02;;;57.20;;
51560;SDS011;37654;51.262;17.058;2023-12-07T06:41:26;130.23;;;56.08;;
51560;SDS011;37654;51.262;17.058;2023-12-07T06:43:52;130.30;;;53.17;;
51560;SDS011;37654;51.262;17.058;2023-12-07T06:46:17;134.95;;;57.35;;
51560;SDS011;37654;51.262;17.058;2023-12-07T06:48:42;139.68;;;55.17;;
51560;SDS011;37654;51.262;17.058;2023-12-07T06:51:08;138.45;;;57.70;;
51560;SDS011;37654;51.262;17.058;2023-12-07T06:53:33;154.45;;;61.80;;
51560;SDS011;37654;51.262;17.058;2023-12-07T06:55:59;164.00;;;57.72;;
51560;SDS011;37654;51.262;17.058;2023-12-07T06:58:24;162.20;;;62.05;;
51560;SDS011;37654;51.262;17.058;2023-12-07T07:00:50;198.88;;;65.95;;
51560;SDS011;37654;51.262;17.058;2023-12-07T07:03:15;191.77;;;67.60;;
51560;SDS011;37654;51.262;17.058;2023-12-07T07:05:40;212.40;;;73.05;;
51560;SDS011;37654;51.262;17.058;2023-12-07T07:08:06;190.77;;;66.60;;
51560;SDS011;37654;51.262;17.058;2023-12-07T07:10:34;201.55;;;66.47;;
51560;SDS011;37654;51.262;17.058;2023-12-07T07:13:00;187.40;;;63.55;;
51560;SDS011;37654;51.262;17.058;2023-12-07T07:15:28;187.88;;;63.35;;
51560;SDS011;37654;51.262;17.058;2023-12-07T07:17:53;206.35;;;65.45;;
51560;SDS011;37654;51.262;17.058;2023-12-07T07:20:18;188.63;;;62.53;;
51560;SDS011;37654;51.262;17.058;2023-12-07T07:22:44;231.90;;;71.05;;
51560;SDS011;37654;51.262;17.058;2023-12-07T07:25:10;215.30;;;70.72;;
51560;SDS011;37654;51.262;17.058;2023-12-07T07:27:35;193.07;;;60.83;;
51560;SDS011;37654;51.262;17.058;2023-12-07T07:30:01;210.57;;;65.63;;
51560;SDS011;37654;51.262;17.058;2023-12-07T07:32:29;213.63;;;70.43;;
51560;SDS011;37654;51.262;17.058;2023-12-07T07:34:54;214.80;;;73.10;;
51560;SDS011;37654;51.262;17.058;2023-12-07T07:37:19;221.25;;;72.38;;
51560;SDS011;37654;51.262;17.058;2023-12-07T07:39:45;236.98;;;76.97;;
51560;SDS011;37654;51.262;17.058;2023-12-07T07:42:11;217.52;;;72.95;;
51560;SDS011;37654;51.262;17.058;2023-12-07T07:44:37;254.50;;;76.28;;
51560;SDS011;37654;51.262;17.058;2023-12-07T07:47:02;221.82;;;75.50;;
51560;SDS011;37654;51.262;17.058;2023-12-07T07:49:27;251.10;;;77.30;;
51560;SDS011;37654;51.262;17.058;2023-12-07T07:51:53;255.95;;;77.20;;
51560;SDS011;37654;51.262;17.058;2023-12-07T07:54:18;257.85;;;76.85;;
51560;SDS011;37654;51.262;17.058;2023-12-07T07:56:43;230.60;;;70.57;;
51560;SDS011;37654;51.262;17.058;2023-12-07T07:59:09;251.85;;;78.22;;
51560;SDS011;37654;51.262;17.058;2023-12-07T08:01:34;233.27;;;75.88;;
51560;SDS011;37654;51.262;17.058;2023-12-07T08:03:59;248.23;;;76.82;;
51560;SDS011;37654;51.262;17.058;2023-12-07T08:06:25;228.23;;;76.50;;
51560;SDS011;37654;51.262;17.058;2023-12-07T08:08:50;249.73;;;74.30;;
51560;SDS011;37654;51.262;17.058;2023-12-07T08:11:16;243.20;;;75.70;;
51560;SDS011;37654;51.262;17.058;2023-12-07T08:13:41;232.55;;;74.15;;
51560;SDS011;37654;51.262;17.058;2023-12-07T08:16:09;234.68;;;77.25;;
51560;SDS011;37654;51.262;17.058;2023-12-07T08:18:35;250.13;;;75.72;;
51560;SDS011;37654;51.262;17.058;2023-12-07T08:21:01;250.07;;;78.13;;
51560;SDS011;37654;51.262;17.058;2023-12-07T08:23:26;296.17;;;80.07;;
51560;SDS011;37654;51.262;17.058;2023-12-07T08:25:51;310.08;;;87.95;;
51560;SDS011;37654;51.262;17.058;2023-12-07T08:28:16;275.13;;;82.30;;
51560;SDS011;37654;51.262;17.058;2023-12-07T08:30:42;278.10;;;82.93;;
51560;SDS011;37654;51.262;17.058;2023-12-07T08:33:08;274.90;;;82.50;;
51560;SDS011;37654;51.262;17.058;2023-12-07T08:35:33;273.60;;;84.25;;
51560;SDS011;37654;51.262;17.058;2023-12-07T08:37:59;320.33;;;87.80;;
51560;SDS011;37654;51.262;17.058;2023-12-07T08:40:24;297.67;;;90.15;;
51560;SDS011;37654;51.262;17.058;2023-12-07T08:42:49;279.65;;;86.25;;
51560;SDS011;37654;51.262;17.058;2023-12-07T08:45:14;277.13;;;83.53;;
51560;SDS011;37654;51.262;17.058;2023-12-07T08:47:41;265.73;;;81.03;;
51560;SDS011;37654;51.262;17.058;2023-12-07T08:50:06;260.85;;;82.20;;
51560;SDS011;37654;51.262;17.058;2023-12-07T08:52:33;247.10;;;80.65;;
51560;SDS011;37654;51.262;17.058;2023-12-07T08:54:58;255.52;;;81.25;;
51560;SDS011;37654;51.262;17.058;2023-12-07T08:57:23;249.00;;;79.78;;
51560;SDS011;37654;51.262;17.058;2023-12-07T08:59:49;224.65;;;81.70;;
51560;SDS011;37654;51.262;17.058;2023-12-07T09:02:14;227.05;;;73.68;;
51560;SDS011;37654;51.262;17.058;2023-12-07T09:04:39;229.32;;;74.60;;
51560;SDS011;37654;51.262;17.058;2023-12-07T09:07:05;205.93;;;71.18;;
51560;SDS011;37654;51.262;17.058;2023-12-07T09:09:30;160.13;;;59.58;;
51560;SDS011;37654;51.262;17.058;2023-12-07T09:11:56;158.45;;;57.78;;
51560;SDS011;37654;51.262;17.058;2023-12-07T09:14:21;166.25;;;59.67;;
51560;SDS011;37654;51.262;17.058;2023-12-07T09:16:47;135.48;;;52.35;;
51560;SDS011;37654;51.262;17.058;2023-12-07T09:19:13;143.25;;;53.80;;
51560;SDS011;37654;51.262;17.058;2023-12-07T09:21:39;133.13;;;52.20;;
51560;SDS011;37654;51.262;17.058;2023-12-07T09:24:04;166.50;;;59.75;;
51560;SDS011;37654;51.262;17.058;2023-12-07T09:26:31;220.60;;;76.30;;
51560;SDS011;37654;51.262;17.058;2023-12-07T09:28:56;206.70;;;74.00;;
51560;SDS011;37654;51.262;17.058;2023-12-07T09:31:22;178.70;;;68.60;;
51560;SDS011;37654;51.262;17.058;2023-12-07T09:33:47;132.43;;;55.55;;
51560;SDS011;37654;51.262;17.058;2023-12-07T09:36:16;125.95;;;54.63;;
51560;SDS011;37654;51.262;17.058;2023-12-07T09:38:43;112.93;;;51.05;;
51560;SDS011;37654;51.262;17.058;2023-12-07T09:41:08;121.65;;;55.17;;
51560;SDS011;37654;51.262;17.058;2023-12-07T09:43:33;122.55;;;51.80;;
51560;SDS011;37654;51.262;17.058;2023-12-07T09:45:59;145.55;;;61.50;;
51560;SDS011;37654;51.262;17.058;2023-12-07T09:48:25;144.60;;;63.33;;
51560;SDS011;37654;51.262;17.058;2023-12-07T09:50:50;125.25;;;55.47;;
51560;SDS011;37654;51.262;17.058;2023-12-07T09:53:16;127.38;;;56.53;;
51560;SDS011;37654;51.262;17.058;2023-12-07T09:55:42;121.32;;;50.97;;
51560;SDS011;37654;51.262;17.058;2023-12-07T09:58:07;110.10;;;48.05;;
51560;SDS011;37654;51.262;17.058;2023-12-07T10:00:32;117.22;;;51.60;;
51560;SDS011;37654;51.262;17.058;2023-12-07T10:02:58;117.93;;;51.70;;
51560;SDS011;37654;51.262;17.058;2023-12-07T10:05:23;122.22;;;53.25;;
51560;SDS011;37654;51.262;17.058;2023-12-07T10:07:49;119.15;;;51.63;;
51560;SDS011;37654;51.262;17.058;2023-12-07T10:10:15;116.95;;;49.38;;
51560;SDS011;37654;51.262;17.058;2023-12-07T10:12:59;121.43;;;51.60;;
51560;SDS011;37654;51.262;17.058;2023-12-07T10:15:25;124.28;;;49.88;;
51560;SDS011;37654;51.262;17.058;2023-12-07T10:17:54;119.32;;;50.30;;
51560;SDS011;37654;51.262;17.058;2023-12-07T10:20:20;129.40;;;50.38;;
51560;SDS011;37654;51.262;17.058;2023-12-07T10:22:49;128.32;;;51.35;;
51560;SDS011;37654;51.262;17.058;2023-12-07T10:25:14;125.38;;;52.65;;
51560;SDS011;37654;51.262;17.058;2023-12-07T10:27:40;118.22;;;47.90;;
51560;SDS011;37654;51.262;17.058;2023-12-07T10:30:07;124.97;;;51.08;;
51560;SDS011;37654;51.262;17.058;2023-12-07T10:32:37;117.97;;;47.53;;
51560;SDS011;37654;51.262;17.058;2023-12-07T10:35:03;129.13;;;51.67;;
51560;SDS011;37654;51.262;17.058;2023-12-07T10:37:29;123.60;;;50.05;;
51560;SDS011;37654;51.262;17.058;2023-12-07T10:39:54;137.38;;;53.28;;
51560;SDS011;37654;51.262;17.058;2023-12-07T10:42:20;137.95;;;52.70;;
51560;SDS011;37654;51.262;17.058;2023-12-07T10:44:47;132.65;;;56.13;;
51560;SDS011;37654;51.262;17.058;2023-12-07T10:47:15;134.65;;;52.35;;
51560;SDS011;37654;51.262;17.058;2023-12-07T10:49:41;119.57;;;51.65;;
51560;SDS011;37654;51.262;17.058;2023-12-07T10:52:08;136.95;;;53.75;;
51560;SDS011;37654;51.262;17.058;2023-12-07T10:54:50;143.80;;;61.50;;
51560;SDS011;37654;51.262;17.058;2023-12-07T10:57:16;163.95;;;59.28;;
51560;SDS011;37654;51.262;17.058;2023-12-07T10:59:42;150.57;;;56.63;;
51560;SDS011;37654;51.262;17.058;2023-12-07T11:02:08;144.95;;;57.20;;
51560;SDS011;37654;51.262;17.058;2023-12-07T11:04:35;140.40;;;54.15;;
51560;SDS011;37654;51.262;17.058;2023-12-07T11:07:03;151.13;;;55.83;;
51560;SDS011;37654;51.262;17.058;2023-12-07T11:09:30;160.35;;;60.70;;
51560;SDS011;37654;51.262;17.058;2023-12-07T11:14:41;139.57;;;55.33;;
51560;SDS011;37654;51.262;17.058;2023-12-07T11:17:07;141.05;;;57.20;;
51560;SDS011;37654;51.262;17.058;2023-12-07T11:22:01;145.40;;;57.13;;
51560;SDS011;37654;51.262;17.058;2023-12-07T11:24:27;144.93;;;54.08;;
51560;SDS011;37654;51.262;17.058;2023-12-07T11:26:53;153.20;;;55.25;;
51560;SDS011;37654;51.262;17.058;2023-12-07T11:29:25;146.10;;;55.58;;
51560;SDS011;37654;51.262;17.058;2023-12-07T11:31:51;136.25;;;54.17;;
51560;SDS011;37654;51.262;17.058;2023-12-07T11:37:01;137.23;;;54.67;;
51560;SDS011;37654;51.262;17.058;2023-12-07T11:39:26;134.43;;;52.38;;
51560;SDS011;37654;51.262;17.058;2023-12-07T11:41:54;129.85;;;51.78;;
51560;SDS011;37654;51.262;17.058;2023-12-07T11:44:24;129.27;;;51.90;;
51560;SDS011;37654;51.262;17.058;2023-12-07T11:46:49;124.72;;;47.08;;
51560;SDS011;37654;51.262;17.058;2023-12-07T11:49:14;127.95;;;49.22;;
51560;SDS011;37654;51.262;17.058;2023-12-07T11:51:40;145.20;;;53.55;;
51560;SDS011;37654;51.262;17.058;2023-12-07T11:54:05;129.55;;;49.55;;
51560;SDS011;37654;51.262;17.058;2023-12-07T11:56:30;137.20;;;52.45;;
51560;SDS011;37654;51.262;17.058;2023-12-07T11:58:56;141.57;;;53.85;;
51560;SDS011;37654;51.262;17.058;2023-12-07T12:01:24;125.35;;;50.20;;
51560;SDS011;37654;51.262;17.058;2023-12-07T12:03:49;125.50;;;51.80;;
51560;SDS011;37654;51.262;17.058;2023-12-07T12:06:15;115.43;;;43.85;;
51560;SDS011;37654;51.262;17.058;2023-12-07T12:08:40;119.78;;;53.50;;
51560;SDS011;37654;51.262;17.058;2023-12-07T12:11:06;112.50;;;49.55;;
51560;SDS011;37654;51.262;17.058;2023-12-07T12:13:35;135.73;;;54.35;;
51560;SDS011;37654;51.262;17.058;2023-12-07T12:16:01;122.78;;;48.63;;
51560;SDS011;37654;51.262;17.058;2023-12-07T12:18:26;105.43;;;45.97;;
51560;SDS011;37654;51.262;17.058;2023-12-07T12:20:52;116.00;;;47.63;;
51560;SDS011;37654;51.262;17.058;2023-12-07T12:23:18;114.72;;;46.90;;
51560;SDS011;37654;51.262;17.058;2023-12-07T12:25:43;103.50;;;46.50;;
51560;SDS011;37654;51.262;17.058;2023-12-07T12:28:09;103.05;;;42.88;;
51560;SDS011;37654;51.262;17.058;2023-12-07T12:30:35;108.88;;;43.63;;
51560;SDS011;37654;51.262;17.058;2023-12-07T12:33:00;112.53;;;47.35;;
51560;SDS011;37654;51.262;17.058;2023-12-07T12:35:26;114.75;;;47.85;;
51560;SDS011;37654;51.262;17.058;2023-12-07T12:37:51;105.60;;;45.42;;
51560;SDS011;37654;51.262;17.058;2023-12-07T12:40:17;123.75;;;48.63;;
51560;SDS011;37654;51.262;17.058;2023-12-07T12:42:46;107.88;;;45.08;;
51560;SDS011;37654;51.262;17.058;2023-12-07T12:45:12;111.55;;;42.70;;
51560;SDS011;37654;51.262;17.058;2023-12-07T12:47:38;113.43;;;45.75;;
51560;SDS011;37654;51.262;17.058;2023-12-07T12:50:05;109.35;;;41.65;;
51560;SDS011;37654;51.262;17.058;2023-12-07T12:52:30;116.95;;;43.45;;
51560;SDS011;37654;51.262;17.058;2023-12-07T12:54:56;118.15;;;46.67;;
51560;SDS011;37654;51.262;17.058;2023-12-07T12:57:22;116.35;;;45.70;;
51560;SDS011;37654;51.262;17.058;2023-12-07T12:59:47;112.55;;;43.63;;
51560;SDS011;37654;51.262;17.058;2023-12-07T13:02:13;124.25;;;44.13;;
51560;SDS011;37654;51.262;17.058;2023-12-07T13:04:39;97.68;;;40.00;;
51560;SDS011;37654;51.262;17.058;2023-12-07T13:07:05;102.70;;;41.63;;
51560;SDS011;37654;51.262;17.058;2023-12-07T13:09:30;99.57;;;42.03;;
51560;SDS011;37654;51.262;17.058;2023-12-07T13:11:56;112.80;;;42.70;;
51560;SDS011;37654;51.262;17.058;2023-12-07T13:14:22;125.38;;;46.85;;
51560;SDS011;37654;51.262;17.058;2023-12-07T13:16:47;120.32;;;46.25;;
51560;SDS011;37654;51.262;17.058;2023-12-07T13:19:12;111.28;;;41.53;;
51560;SDS011;37654;51.262;17.058;2023-12-07T13:21:37;111.60;;;39.35;;
51560;SDS011;37654;51.262;17.058;2023-12-07T13:24:03;104.32;;;38.63;;
51560;SDS011;37654;51.262;17.058;2023-12-07T13:26:31;93.05;;;37.53;;
51560;SDS011;37654;51.262;17.058;2023-12-07T13:28:56;92.55;;;37.45;;
51560;SDS011;37654;51.262;17.058;2023-12-07T13:31:21;102.75;;;41.50;;
51560;SDS011;37654;51.262;17.058;2023-12-07T13:33:47;104.88;;;41.28;;
51560;SDS011;37654;51.262;17.058;2023-12-07T13:36:12;110.53;;;43.20;;
51560;SDS011;37654;51.262;17.058;2023-12-07T13:38:39;112.60;;;40.83;;
51560;SDS011;37654;51.262;17.058;2023-12-07T13:41:04;113.38;;;39.45;;
51560;SDS011;37654;51.262;17.058;2023-12-07T13:43:30;89.13;;;37.00;;
51560;SDS011;37654;51.262;17.058;2023-12-07T13:45:55;102.88;;;36.42;;
51560;SDS011;37654;51.262;17.058;2023-12-07T13:48:21;87.00;;;34.38;;
51560;SDS011;37654;51.262;17.058;2023-12-07T13:50:46;84.40;;;33.90;;
51560;SDS011;37654;51.262;17.058;2023-12-07T13:53:11;82.57;;;33.15;;
51560;SDS011;37654;51.262;17.058;2023-12-07T13:55:37;87.07;;;34.63;;
51560;SDS011;37654;51.262;17.058;2023-12-07T13:58:03;102.00;;;38.35;;